Time;durP1;ratioP1;P1;durP2;ratioP2;P2;SDS_P1;SDS_P2;PMS_P1;PMS_P2;Temp;Humidity;BMP_temperature;BMP_pressure;BME280_temperature;BME280_humidity;BME280_pressure;Samples;Min_cycle;Max_cycle;Signal;HPM_P1;HPM_P2
2022/04/14 00:01:40;;;;;;;78.07;55.88;;;28.40;87.00;;;;;;5124669;28;20019;-51
2022/04/14 00:04:07;;;;;;;72.93;58.20;;;28.40;87.30;;;;;;5124201;28;20039;-54
2022/04/14 00:06:33;;;;;;;81.70;70.10;;;28.40;87.10;;;;;;5124240;28;20035;-55
2022/04/14 00:09:00;;;;;;;103.18;91.72;;;28.40;87.10;;;;;;5124330;28;20072;-58
2022/04/14 00:11:27;;;;;;;100.05;89.20;;;28.40;86.90;;;;;;5124218;28;20016;-53
2022/04/14 00:13:54;;;;;;;74.75;64.50;;;28.40;86.70;;;;;;5124060;28;20020;-54
2022/04/14 00:16:21;;;;;;;65.68;55.28;;;28.40;86.70;;;;;;5124141;28;20083;-54
2022/04/14 00:18:47;;;;;;;66.00;54.50;;;28.30;86.60;;;;;;5124037;28;20016;-53
2022/04/14 00:21:14;;;;;;;62.53;53.00;;;28.30;87.10;;;;;;5123624;28;21653;-56
2022/04/14 00:23:41;;;;;;;59.47;52.58;;;28.30;87.20;;;;;;5134070;28;20038;-55
2022/04/14 00:26:07;;;;;;;56.10;48.42;;;28.30;87.20;;;;;;5144462;28;20030;-54
2022/04/14 00:28:34;;;;;;;52.67;46.92;;;28.20;87.00;;;;;;5145046;28;20023;-54
2022/04/14 00:31:03;;;;;;;49.63;41.47;;;28.20;87.00;;;;;;5144484;28;20050;-51
2022/04/14 00:33:29;;;;;;;60.90;47.15;;;28.20;86.80;;;;;;5145043;27;20075;-55
2022/04/14 00:35:56;;;;;;;46.00;40.78;;;28.20;86.80;;;;;;5147472;27;20205;-49
2022/04/14 00:38:22;;;;;;;46.58;37.67;;;28.20;86.70;;;;;;5148907;27;20011;-45
2022/04/14 00:40:50;;;;;;;45.40;35.30;;;28.10;86.90;;;;;;5148342;27;20023;-53
2022/04/14 00:43:17;;;;;;;42.38;32.83;;;28.10;86.70;;;;;;5148893;27;20147;-55
2022/04/14 00:45:44;;;;;;;40.15;31.08;;;28.10;86.20;;;;;;5148393;27;20046;-53
2022/04/14 00:48:13;;;;;;;38.33;28.17;;;28.00;85.70;;;;;;5145310;27;20056;-52
2022/04/14 00:50:39;;;;;;;32.40;24.45;;;28.00;85.50;;;;;;5136572;27;20028;-57
2022/04/14 00:53:06;;;;;;;36.40;23.33;;;27.90;85.10;;;;;;5127836;28;20038;-51
2022/04/14 00:55:33;;;;;;;27.67;20.70;;;27.90;84.80;;;;;;5127286;27;20097;-54
2022/04/14 00:58:00;;;;;;;29.45;21.13;;;27.80;84.70;;;;;;5137708;27;20023;-53
2022/04/14 01:00:26;;;;;;;31.20;19.35;;;27.80;84.60;;;;;;5135399;27;20015;-57
2022/04/14 01:02:55;;;;;;;28.15;19.85;;;27.80;84.40;;;;;;5137128;27;20022;-55
2022/04/14 01:05:22;;;;;;;29.02;19.00;;;27.80;84.60;;;;;;5139341;27;20207;-55
2022/04/14 01:07:50;;;;;;;25.13;17.40;;;27.80;84.60;;;;;;5148190;27;20034;-54
2022/04/14 01:10:18;;;;;;;30.00;18.10;;;27.80;84.70;;;;;;5147599;27;20053;-54
2022/04/14 01:12:44;;;;;;;27.42;18.02;;;27.80;84.20;;;;;;5147989;27;20019;-53
2022/04/14 01:15:13;;;;;;;26.73;17.73;;;27.80;83.90;;;;;;5147708;27;20034;-53
2022/04/14 01:17:41;;;;;;;28.27;17.27;;;27.80;83.70;;;;;;5147762;27;20203;-55
2022/04/14 01:20:11;;;;;;;23.05;15.98;;;27.70;83.30;;;;;;5140875;27;20028;-56
2022/04/14 01:22:57;;;;;;;24.83;16.90;;;27.80;83.00;;;;;;5135976;27;20046;-53
2022/04/14 01:25:25;;;;;;;23.33;16.00;;;27.80;82.80;;;;;;5140088;27;20069;-56
2022/04/14 01:27:52;;;;;;;27.48;16.63;;;27.80;82.30;;;;;;5135873;27;20031;-53
2022/04/14 01:30:19;;;;;;;25.50;15.88;;;27.70;82.00;;;;;;5137316;27;20257;-55
2022/04/14 01:32:46;;;;;;;23.55;15.50;;;27.70;81.90;;;;;;5135803;27;20322;-55
2022/04/14 01:35:13;;;;;;;22.33;15.13;;;27.70;81.70;;;;;;5135612;27;20101;-52
2022/04/14 01:37:39;;;;;;;21.45;15.57;;;27.60;81.70;;;;;;5137926;27;20046;-53
2022/04/14 01:40:07;;;;;;;27.30;14.85;;;27.60;81.60;;;;;;5129353;27;20035;-51
2022/04/14 01:42:34;;;;;;;26.00;14.63;;;27.70;81.20;;;;;;5126813;28;20020;-52
2022/04/14 01:45:01;;;;;;;20.00;14.00;;;27.60;81.10;;;;;;5126282;28;20022;-58
2022/04/14 01:47:28;;;;;;;24.17;15.27;;;27.60;81.10;;;;;;5131989;27;20323;-55
2022/04/14 01:49:54;;;;;;;23.15;15.10;;;27.60;80.90;;;;;;5143996;27;20028;-59
2022/04/14 01:52:21;;;;;;;23.75;14.85;;;27.60;80.90;;;;;;5146914;27;20022;-53
2022/04/14 01:54:47;;;;;;;23.92;14.98;;;27.60;80.50;;;;;;5146715;27;20235;-53
2022/04/14 01:57:14;;;;;;;24.05;15.35;;;27.60;80.50;;;;;;5138448;27;20050;-54
2022/04/14 01:59:40;;;;;;;23.58;15.40;;;27.60;80.10;;;;;;5130646;27;20318;-52
2022/04/14 02:02:07;;;;;;;22.52;14.50;;;27.60;80.20;;;;;;5135500;27;20029;-55
2022/04/14 02:04:34;;;;;;;19.63;13.90;;;27.60;80.10;;;;;;5133168;27;20042;-58
2022/04/14 02:07:00;;;;;;;20.35;13.93;;;27.70;79.90;;;;;;5136433;27;20118;-51
2022/04/14 02:09:27;;;;;;;20.73;13.55;;;27.70;79.60;;;;;;5126181;28;20031;-52
2022/04/14 02:11:53;;;;;;;21.50;13.50;;;27.70;79.40;;;;;;5126242;28;20039;-53
2022/04/14 02:14:20;;;;;;;21.27;13.40;;;27.70;79.20;;;;;;5125952;28;20031;-56
2022/04/14 02:16:46;;;;;;;22.88;13.75;;;27.70;79.10;;;;;;5126092;28;20022;-53
2022/04/14 02:19:13;;;;;;;19.88;13.82;;;27.70;78.90;;;;;;5126008;28;20047;-54
2022/04/14 02:21:39;;;;;;;22.55;14.02;;;27.70;78.80;;;;;;5125847;28;20020;-56
2022/04/14 02:24:06;;;;;;;19.27;13.15;;;27.70;78.70;;;;;;5125973;28;20051;-56
2022/04/14 02:26:33;;;;;;;21.52;13.05;;;27.70;78.70;;;;;;5125787;28;20028;-51
2022/04/14 02:28:59;;;;;;;22.08;12.82;;;27.70;78.60;;;;;;5125723;28;20028;-54
2022/04/14 02:31:26;;;;;;;17.55;12.15;;;27.70;78.70;;;;;;5126360;27;20023;-55
2022/04/14 02:33:53;;;;;;;20.00;12.80;;;27.70;78.40;;;;;;5134476;27;20315;-53
2022/04/14 02:36:19;;;;;;;22.17;12.90;;;27.70;78.40;;;;;;5130716;27;20019;-53
2022/04/14 02:38:46;;;;;;;19.20;12.75;;;27.70;78.30;;;;;;5145929;27;20044;-54
2022/04/14 02:41:12;;;;;;;18.63;11.93;;;27.70;78.10;;;;;;5137354;27;20025;-54
2022/04/14 02:43:39;;;;;;;18.17;11.65;;;27.60;78.10;;;;;;5125680;28;20253;-54
2022/04/14 02:46:05;;;;;;;18.33;11.50;;;27.70;78.00;;;;;;5125201;28;20019;-53
2022/04/14 02:48:32;;;;;;;17.38;11.88;;;27.70;77.70;;;;;;5125769;28;20045;-52
2022/04/14 02:50:59;;;;;;;18.58;11.50;;;27.60;77.60;;;;;;5125313;28;20311;-52
2022/04/14 02:53:27;;;;;;;20.08;12.15;;;27.60;77.80;;;;;;5125013;28;20211;-52
2022/04/14 02:55:53;;;;;;;20.25;12.18;;;27.60;77.70;;;;;;5124723;28;20205;-52
2022/04/14 02:58:20;;;;;;;19.15;11.98;;;27.60;77.50;;;;;;5134685;27;20020;-57
2022/04/14 03:00:47;;;;;;;17.13;11.88;;;27.60;77.40;;;;;;5125043;28;20030;-55
2022/04/14 03:03:13;;;;;;;23.15;12.35;;;27.60;77.40;;;;;;5131769;27;20209;-51
2022/04/14 03:05:40;;;;;;;18.17;11.95;;;27.60;77.30;;;;;;5134390;27;20026;-55
2022/04/14 03:08:06;;;;;;;18.67;11.90;;;27.60;77.60;;;;;;5132913;27;20020;-50
2022/04/14 03:10:33;;;;;;;20.88;12.25;;;27.60;77.80;;;;;;5124892;28;20082;-56
2022/04/14 03:12:59;;;;;;;20.70;11.90;;;27.60;77.60;;;;;;5125219;28;20134;-52
2022/04/14 03:15:26;;;;;;;16.50;12.38;;;27.60;77.50;;;;;;5124786;28;20368;-55
2022/04/14 03:17:53;;;;;;;19.13;11.75;;;27.60;77.10;;;;;;5125338;28;20192;-55
2022/04/14 03:20:20;;;;;;;17.15;11.45;;;27.70;77.60;;;;;;5124454;28;20026;-55
2022/04/14 03:22:47;;;;;;;21.33;11.90;;;27.70;77.50;;;;;;5124981;28;20041;-55
2022/04/14 03:25:14;;;;;;;22.45;11.77;;;27.70;77.20;;;;;;5124767;28;20320;-52
2022/04/14 03:27:41;;;;;;;15.95;11.32;;;27.70;76.60;;;;;;5125032;28;20027;-54
2022/04/14 03:30:10;;;;;;;16.95;11.52;;;27.70;77.10;;;;;;5127617;27;20223;-53
2022/04/14 03:32:41;;;;;;;14.18;10.77;;;27.70;76.60;;;;;;5136317;27;20021;-55
2022/04/14 03:35:08;;;;;;;17.70;11.40;;;27.70;76.60;;;;;;5144785;27;20063;-55
2022/04/14 03:37:35;;;;;;;17.92;11.15;;;27.70;76.20;;;;;;5145242;27;20015;-54
2022/04/14 03:40:03;;;;;;;23.35;12.18;;;27.70;76.10;;;;;;5145210;27;20019;-53
2022/04/14 03:42:29;;;;;;;15.55;10.93;;;27.80;76.00;;;;;;5145275;27;20064;-53
2022/04/14 03:44:57;;;;;;;19.67;11.07;;;27.80;76.00;;;;;;5144952;27;20041;-55
2022/04/14 03:47:24;;;;;;;18.30;11.02;;;27.80;75.20;;;;;;5145352;27;20023;-60
2022/04/14 03:49:51;;;;;;;14.77;10.73;;;27.80;75.40;;;;;;5144398;28;20257;-54
2022/04/14 03:52:18;;;;;;;17.33;10.73;;;27.80;75.00;;;;;;5125763;28;20060;-58
2022/04/14 03:54:45;;;;;;;14.65;10.65;;;27.80;75.10;;;;;;5124428;28;20281;-51
2022/04/14 03:57:12;;;;;;;18.15;10.20;;;27.70;74.90;;;;;;5130479;28;20106;-53
2022/04/14 03:59:39;;;;;;;17.27;11.02;;;27.70;74.40;;;;;;5140173;28;20080;-52
2022/04/14 04:02:06;;;;;;;15.50;11.13;;;27.70;74.10;;;;;;5128437;28;20200;-54
2022/04/14 04:04:32;;;;;;;12.63;10.43;;;27.70;74.70;;;;;;5126804;28;20034;-55
2022/04/14 04:07:00;;;;;;;17.83;10.82;;;27.70;74.10;;;;;;5139695;28;20061;-54
2022/04/14 04:09:27;;;;;;;15.98;10.60;;;27.70;74.30;;;;;;5126435;28;20058;-54
2022/04/14 04:11:54;;;;;;;18.00;11.13;;;27.70;74.70;;;;;;5128653;28;20023;-54
2022/04/14 04:14:21;;;;;;;17.02;11.25;;;27.70;74.80;;;;;;5134970;27;20023;-53
2022/04/14 04:16:48;;;;;;;16.80;10.63;;;27.70;75.20;;;;;;5133110;27;20349;-50
2022/04/14 04:19:15;;;;;;;15.57;10.73;;;27.60;74.90;;;;;;5136059;27;20058;-54
2022/04/14 04:21:41;;;;;;;17.27;11.25;;;27.60;75.20;;;;;;5120006;27;20019;-55
2022/04/14 04:24:08;;;;;;;16.55;11.18;;;27.60;75.00;;;;;;5128845;27;20030;-55
2022/04/14 04:26:35;;;;;;;17.75;11.43;;;27.60;75.30;;;;;;5128238;28;20082;-54
2022/04/14 04:29:01;;;;;;;18.65;12.35;;;27.60;75.40;;;;;;5127895;28;20389;-50
2022/04/14 04:31:28;;;;;;;18.17;12.10;;;27.60;75.50;;;;;;5138803;27;20207;-51
2022/04/14 04:33:54;;;;;;;17.40;11.77;;;27.60;75.70;;;;;;5129501;27;20023;-53
2022/04/14 04:36:21;;;;;;;16.08;11.85;;;27.60;75.70;;;;;;5127829;28;20015;-57
2022/04/14 04:38:48;;;;;;;18.10;12.00;;;27.60;76.00;;;;;;5128083;28;20023;-52
2022/04/14 04:41:14;;;;;;;17.38;12.27;;;27.50;76.00;;;;;;5127763;28;20307;-55
2022/04/14 04:43:41;;;;;;;17.45;12.05;;;27.50;76.20;;;;;;5128058;28;20059;-53
2022/04/14 04:46:08;;;;;;;18.33;11.98;;;27.50;76.20;;;;;;5126816;28;20062;-57
2022/04/14 04:48:35;;;;;;;18.45;11.93;;;27.50;76.30;;;;;;5127932;28;20032;-55
2022/04/14 04:51:02;;;;;;;17.25;11.48;;;27.50;76.40;;;;;;5130332;27;20053;-53
2022/04/14 04:53:28;;;;;;;20.83;12.40;;;27.50;76.50;;;;;;5138885;27;20014;-55
2022/04/14 04:55:55;;;;;;;17.35;12.00;;;27.40;76.30;;;;;;5137891;27;20323;-55
2022/04/14 04:58:22;;;;;;;22.20;12.35;;;27.40;76.50;;;;;;5137394;27;20022;-56
2022/04/14 05:00:50;;;;;;;16.08;12.48;;;27.40;76.40;;;;;;5136583;27;20350;-55
2022/04/14 05:03:17;;;;;;;17.38;11.70;;;27.40;76.60;;;;;;5138906;27;20299;-55
2022/04/14 05:05:43;;;;;;;16.98;13.05;;;27.40;76.40;;;;;;5137079;27;20216;-52
2022/04/14 05:08:10;;;;;;;16.95;12.15;;;27.40;76.40;;;;;;5137018;27;20019;-53
2022/04/14 05:10:37;;;;;;;21.25;12.75;;;27.40;76.20;;;;;;5141725;27;20023;-52
2022/04/14 05:13:04;;;;;;;15.15;11.45;;;27.40;76.20;;;;;;5139666;27;20022;-52
2022/04/14 05:15:31;;;;;;;19.88;11.55;;;27.40;76.50;;;;;;5143130;27;20022;-52
2022/04/14 05:17:57;;;;;;;19.48;12.10;;;27.40;76.60;;;;;;5148090;27;20015;-52
2022/04/14 05:20:24;;;;;;;16.40;12.13;;;27.30;76.40;;;;;;5146980;27;20320;-56
2022/04/14 05:22:51;;;;;;;20.17;12.15;;;27.30;76.40;;;;;;5147543;27;20219;-52
2022/04/14 05:25:17;;;;;;;16.42;11.40;;;27.40;76.60;;;;;;5147687;27;20325;-54
2022/04/14 05:27:44;;;;;;;15.70;11.40;;;27.30;76.20;;;;;;5145190;27;20099;-50
2022/04/14 05:30:11;;;;;;;18.25;11.30;;;27.40;76.10;;;;;;5126821;28;20023;-57
2022/04/14 05:32:38;;;;;;;15.30;11.15;;;27.30;75.80;;;;;;5127279;28;20011;-51
2022/04/14 05:35:08;;;;;;;19.08;11.30;;;27.30;75.70;;;;;;5126940;28;20050;-52
2022/04/14 05:37:35;;;;;;;18.55;11.32;;;27.30;75.90;;;;;;5126967;28;20023;-55
2022/04/14 05:40:03;;;;;;;18.23;11.15;;;27.30;75.80;;;;;;5126894;28;20043;-53
2022/04/14 05:42:30;;;;;;;18.52;11.68;;;27.30;75.60;;;;;;5126993;28;20026;-55
2022/04/14 05:44:58;;;;;;;17.02;11.05;;;27.30;75.50;;;;;;5126512;28;20227;-52
2022/04/14 05:47:24;;;;;;;18.73;11.43;;;27.30;75.60;;;;;;5126931;28;20096;-54
2022/04/14 05:49:52;;;;;;;15.63;11.05;;;27.30;75.70;;;;;;5126653;28;20043;-55
2022/04/14 05:52:19;;;;;;;14.63;10.77;;;27.30;75.70;;;;;;5126643;28;20187;-54
2022/04/14 05:54:47;;;;;;;16.27;10.73;;;27.30;75.40;;;;;;5126256;28;20046;-54
2022/04/14 05:57:14;;;;;;;14.88;11.38;;;27.30;75.40;;;;;;5126612;28;20032;-58
2022/04/14 05:59:42;;;;;;;18.17;11.50;;;27.30;75.40;;;;;;5126802;27;20343;-56
2022/04/14 06:02:09;;;;;;;17.27;11.48;;;27.30;75.30;;;;;;5126467;28;20304;-52
2022/04/14 06:04:36;;;;;;;17.42;11.00;;;27.30;75.10;;;;;;5126304;28;20094;-52
2022/04/14 06:07:03;;;;;;;15.82;10.48;;;27.30;75.10;;;;;;5126191;28;20020;-49
2022/04/14 06:09:29;;;;;;;18.90;11.18;;;27.30;75.00;;;;;;5126033;28;20030;-53
2022/04/14 06:11:56;;;;;;;12.48;10.35;;;27.30;75.10;;;;;;5126293;28;20020;-53
2022/04/14 06:14:22;;;;;;;14.13;10.77;;;27.30;75.10;;;;;;5125915;28;20037;-50
2022/04/14 06:16:49;;;;;;;18.38;11.18;;;27.30;75.20;;;;;;5126066;28;20019;-53
2022/04/14 06:19:15;;;;;;;15.05;10.88;;;27.30;75.10;;;;;;5125875;28;20201;-49
2022/04/14 06:21:42;;;;;;;18.80;10.35;;;27.30;75.10;;;;;;5125715;28;20226;-53
2022/04/14 06:24:08;;;;;;;17.13;10.18;;;27.30;74.90;;;;;;5126063;28;20030;-52
2022/04/14 06:26:35;;;;;;;14.77;10.88;;;27.20;75.00;;;;;;5125805;28;20047;-50
2022/04/14 06:29:02;;;;;;;13.63;10.18;;;27.30;75.10;;;;;;5125710;28;20046;-53
2022/04/14 06:31:28;;;;;;;14.60;10.63;;;27.30;74.70;;;;;;5125425;28;20304;-50
2022/04/14 06:33:55;;;;;;;16.05;10.13;;;27.30;74.80;;;;;;5124821;28;20030;-52
2022/04/14 06:36:22;;;;;;;18.00;10.45;;;27.30;74.60;;;;;;5125492;28;20023;-51
2022/04/14 06:38:48;;;;;;;16.73;10.57;;;27.30;74.40;;;;;;5125636;28;20028;-54
2022/04/14 06:41:15;;;;;;;15.82;10.57;;;27.30;74.40;;;;;;5125625;28;20011;-55
2022/04/14 06:43:41;;;;;;;16.45;10.40;;;27.20;74.50;;;;;;5125392;28;20319;-57
2022/04/14 06:46:08;;;;;;;17.33;10.00;;;27.30;74.30;;;;;;5125577;28;20095;-55
2022/04/14 06:48:34;;;;;;;12.52;9.95;;;27.20;74.50;;;;;;5125893;28;20296;-53
2022/04/14 06:51:01;;;;;;;13.35;10.18;;;27.30;74.20;;;;;;5125174;28;20036;-55
2022/04/14 06:53:28;;;;;;;11.82;9.57;;;27.30;74.50;;;;;;5125651;28;20027;-50
2022/04/14 06:55:54;;;;;;;14.02;10.32;;;27.30;74.20;;;;;;5124984;28;20062;-53
2022/04/14 06:58:21;;;;;;;14.32;9.57;;;27.20;73.80;;;;;;5125759;28;20016;-56
2022/04/14 07:00:48;;;;;;;15.18;10.23;;;27.20;74.10;;;;;;5125108;28;20054;-54
2022/04/14 07:03:15;;;;;;;18.45;10.90;;;27.20;74.10;;;;;;5125433;28;20031;-52
2022/04/14 07:05:41;;;;;;;15.55;10.05;;;27.20;74.10;;;;;;5125249;28;20024;-55
2022/04/14 07:08:08;;;;;;;13.05;9.73;;;27.20;74.30;;;;;;5124902;28;20023;-54
2022/04/14 07:10:35;;;;;;;14.02;9.90;;;27.20;74.00;;;;;;5124865;28;20279;-55
2022/04/14 07:13:01;;;;;;;16.55;10.10;;;27.20;74.00;;;;;;5125435;28;20031;-54
2022/04/14 07:15:28;;;;;;;12.85;10.20;;;27.20;74.20;;;;;;5124841;28;20020;-54
2022/04/14 07:17:55;;;;;;;13.23;9.60;;;27.10;74.20;;;;;;5125157;28;20087;-55
2022/04/14 07:20:21;;;;;;;13.38;9.85;;;27.10;73.90;;;;;;5124767;28;20030;-56
2022/04/14 07:22:52;;;;;;;15.95;10.43;;;27.10;74.10;;;;;;5125114;28;20300;-55
2022/04/14 07:25:19;;;;;;;18.70;9.90;;;27.10;74.00;;;;;;5124702;28;20084;-50
2022/04/14 07:27:46;;;;;;;15.38;10.07;;;27.10;74.10;;;;;;5125165;28;20019;-52
2022/04/14 07:30:13;;;;;;;15.52;10.07;;;27.10;74.10;;;;;;5124425;28;20262;-50
2022/04/14 07:32:45;;;;;;;15.55;11.00;;;27.10;73.80;;;;;;5124900;28;20043;-54
2022/04/14 07:35:13;;;;;;;15.00;10.85;;;27.10;74.00;;;;;;5124657;28;20027;-53
2022/04/14 07:37:40;;;;;;;16.85;11.15;;;27.10;74.20;;;;;;5124868;28;20379;-57
2022/04/14 07:40:07;;;;;;;13.73;11.00;;;27.10;74.20;;;;;;5124577;28;20052;-54
2022/04/14 07:42:39;;;;;;;16.10;10.85;;;27.10;74.30;;;;;;5124790;28;20019;-52
2022/04/14 07:45:08;;;;;;;17.00;10.80;;;27.00;74.10;;;;;;5124343;28;20031;-51
2022/04/14 07:47:41;;;;;;;13.77;11.07;;;27.10;74.40;;;;;;5124758;28;20296;-54
2022/04/14 07:50:12;;;;;;;15.75;11.10;;;27.10;74.60;;;;;;5124311;28;20308;-51
2022/04/14 07:52:55;;;;;;;14.00;10.50;;;27.10;74.50;;;;;;5124677;28;20016;-55
2022/04/14 07:55:30;;;;;;;13.65;10.85;;;27.10;74.40;;;;;;5124398;28;20227;-53
2022/04/14 07:58:00;;;;;;;16.35;10.93;;;27.00;74.20;;;;;;5124870;28;20023;-53
2022/04/14 08:00:27;;;;;;;16.55;11.38;;;27.00;74.10;;;;;;5124396;28;20083;-54
2022/04/14 08:02:58;;;;;;;16.23;10.90;;;27.00;74.20;;;;;;5124547;28;20019;-53
2022/04/14 08:05:32;;;;;;;16.65;11.32;;;27.00;74.40;;;;;;5124327;28;20034;-52
2022/04/14 08:08:00;;;;;;;17.40;11.32;;;27.00;74.50;;;;;;5124593;28;20031;-51
2022/04/14 08:10:26;;;;;;;14.05;11.00;;;27.00;74.10;;;;;;5124473;28;20060;-55
2022/04/14 08:12:53;;;;;;;16.25;11.23;;;27.00;74.50;;;;;;5125004;28;20019;-55
2022/04/14 08:15:20;;;;;;;14.27;11.13;;;27.00;74.20;;;;;;5124094;28;20213;-51
2022/04/14 08:17:47;;;;;;;15.93;10.95;;;27.00;74.60;;;;;;5124680;28;20016;-51
2022/04/14 08:20:15;;;;;;;16.15;11.20;;;27.00;74.50;;;;;;5124458;28;20320;-53
2022/04/14 08:22:56;;;;;;;15.95;10.85;;;26.90;74.50;;;;;;5124349;28;20028;-57
2022/04/14 08:25:27;;;;;;;14.05;10.80;;;26.90;74.40;;;;;;5124187;28;20035;-50
2022/04/14 08:27:54;;;;;;;16.88;11.15;;;27.00;74.60;;;;;;5124495;28;20091;-52
2022/04/14 08:30:23;;;;;;;15.50;10.70;;;27.00;74.50;;;;;;5124019;28;20095;-55
2022/04/14 08:32:52;;;;;;;14.50;10.90;;;27.00;74.20;;;;;;5124557;28;20078;-57
2022/04/14 08:35:19;;;;;;;16.70;11.00;;;26.90;74.40;;;;;;5124440;28;20069;-56
2022/04/14 08:37:47;;;;;;;19.83;11.80;;;26.90;74.10;;;;;;5123994;28;20099;-50
2022/04/14 08:40:16;;;;;;;19.15;12.27;;;26.90;74.40;;;;;;5124169;28;20211;-54
2022/04/14 08:42:58;;;;;;;14.68;11.63;;;26.90;74.00;;;;;;5125918;28;20031;-51
2022/04/14 08:45:27;;;;;;;14.13;11.23;;;26.90;74.00;;;;;;5124043;28;20269;-55
2022/04/14 08:47:55;;;;;;;17.55;10.90;;;26.90;73.90;;;;;;5124372;28;20296;-57
2022/04/14 08:50:23;;;;;;;16.13;11.48;;;26.90;74.20;;;;;;5123886;28;20024;-57
2022/04/14 08:52:51;;;;;;;14.75;10.75;;;26.90;74.00;;;;;;5124104;28;20022;-56
2022/04/14 08:55:18;;;;;;;15.95;10.93;;;26.90;74.00;;;;;;5123823;28;20285;-51
2022/04/14 08:57:44;;;;;;;17.45;10.60;;;26.90;74.10;;;;;;5128011;28;20353;-61
2022/04/14 09:00:13;;;;;;;15.68;10.48;;;26.90;74.40;;;;;;5127521;28;20024;-55
2022/04/14 09:02:44;;;;;;;15.10;10.65;;;26.90;74.20;;;;;;5127852;28;20030;-54
2022/04/14 09:05:10;;;;;;;17.77;10.68;;;26.90;73.90;;;;;;5127490;28;20358;-51
2022/04/14 09:07:38;;;;;;;16.77;10.93;;;26.80;74.20;;;;;;5127665;28;20031;-55
2022/04/14 09:10:06;;;;;;;16.27;10.48;;;26.80;74.00;;;;;;5127239;28;20027;-57
2022/04/14 09:12:35;;;;;;;15.95;10.82;;;26.80;73.90;;;;;;5127589;28;20205;-56
2022/04/14 09:15:02;;;;;;;15.10;10.95;;;26.80;74.30;;;;;;5127245;28;20119;-55
2022/04/14 09:17:29;;;;;;;13.93;10.93;;;26.80;74.40;;;;;;5127267;28;20012;-56
2022/04/14 09:19:55;;;;;;;14.63;10.82;;;26.80;74.40;;;;;;5127487;28;20034;-55
2022/04/14 09:22:23;;;;;;;16.55;11.20;;;26.80;74.40;;;;;;5127348;28;20064;-55
2022/04/14 09:24:52;;;;;;;16.08;10.80;;;26.80;74.50;;;;;;5126967;28;20372;-53
2022/04/14 09:27:33;;;;;;;16.02;10.70;;;26.80;74.60;;;;;;5127308;28;20039;-57
2022/04/14 09:30:03;;;;;;;16.80;11.63;;;26.80;74.70;;;;;;5127032;28;20027;-57
2022/04/14 09:32:35;;;;;;;17.02;11.18;;;26.80;74.80;;;;;;5127429;28;20023;-56
2022/04/14 09:35:03;;;;;;;16.45;11.00;;;26.80;74.90;;;;;;5126892;28;20331;-54
2022/04/14 09:37:30;;;;;;;15.43;10.93;;;26.80;74.90;;;;;;5126552;28;20024;-55
2022/04/14 09:40:11;;;;;;;18.65;10.90;;;26.80;74.80;;;;;;5126963;28;20020;-57
2022/04/14 09:42:38;;;;;;;17.63;11.10;;;26.80;74.70;;;;;;5126904;28;20045;-57
2022/04/14 09:45:21;;;;;;;16.30;11.02;;;26.80;75.10;;;;;;5127106;28;20046;-56
2022/04/14 09:47:48;;;;;;;16.33;11.57;;;26.80;75.00;;;;;;5127117;28;20019;-55
2022/04/14 09:50:24;;;;;;;13.02;10.52;;;26.80;75.10;;;;;;5126592;28;20215;-53
2022/04/14 09:53:06;;;;;;;13.20;10.82;;;26.90;74.90;;;;;;5126981;28;20016;-52
2022/04/14 09:55:35;;;;;;;16.70;10.90;;;26.90;74.90;;;;;;5126244;28;20051;-49
2022/04/14 09:58:12;;;;;;;16.50;11.05;;;26.80;74.80;;;;;;5126828;28;20038;-56
2022/04/14 10:00:43;;;;;;;12.80;10.43;;;26.80;74.80;;;;;;5126278;28;20035;-50
2022/04/14 10:03:17;;;;;;;15.27;10.57;;;26.80;74.80;;;;;;5126647;28;20016;-50
2022/04/14 10:05:46;;;;;;;17.63;10.93;;;26.80;74.60;;;;;;5126717;28;20027;-57
2022/04/14 10:08:13;;;;;;;17.38;11.32;;;26.80;74.80;;;;;;5126319;28;20023;-51
2022/04/14 10:10:43;;;;;;;17.60;11.20;;;26.80;74.90;;;;;;5126135;28;20024;-51
2022/04/14 10:13:12;;;;;;;16.83;11.48;;;26.80;74.90;;;;;;5126830;28;20082;-56
2022/04/14 10:15:41;;;;;;;16.73;10.65;;;26.80;75.50;;;;;;5126228;28;20087;-51
2022/04/14 10:18:10;;;;;;;13.95;12.02;;;26.80;75.10;;;;;;5126391;28;20016;-55
2022/04/14 10:20:38;;;;;;;15.98;11.85;;;26.80;75.00;;;;;;5125838;28;20080;-57
2022/04/14 10:23:06;;;;;;;15.57;11.77;;;26.80;75.00;;;;;;5126088;28;20331;-58
2022/04/14 10:25:36;;;;;;;16.98;11.65;;;26.90;75.00;;;;;;5125823;28;20039;-53
2022/04/14 10:28:04;;;;;;;16.83;11.38;;;26.90;75.00;;;;;;5126222;28;20200;-54
2022/04/14 10:30:31;;;;;;;17.38;11.10;;;26.80;75.20;;;;;;5125598;28;20024;-53
2022/04/14 10:32:58;;;;;;;15.52;11.05;;;26.90;75.20;;;;;;5126369;28;20016;-53
2022/04/14 10:35:26;;;;;;;13.57;10.85;;;26.80;75.10;;;;;;5125818;28;20034;-54
2022/04/14 10:37:59;;;;;;;15.73;10.98;;;26.90;75.10;;;;;;5125888;28;20012;-54
2022/04/14 10:40:26;;;;;;;17.02;11.30;;;26.90;75.10;;;;;;5125633;28;20020;-56
2022/04/14 10:42:56;;;;;;;18.92;11.68;;;26.80;75.40;;;;;;5131830;27;20028;-57
2022/04/14 10:45:23;;;;;;;19.45;11.52;;;26.90;75.60;;;;;;5146274;27;20034;-58
2022/04/14 10:47:54;;;;;;;21.63;11.05;;;26.90;75.60;;;;;;5146688;27;20056;-57
2022/04/14 10:50:26;;;;;;;14.80;10.82;;;26.90;75.40;;;;;;5146539;27;20023;-54
2022/04/14 10:53:20;;;;;;;;;;;26.90;75.40;;;;;;5146787;27;20026;-60
2022/04/14 10:55:48;;;;;;;15.57;10.35;;;26.90;75.30;;;;;;5145748;27;20200;-56
2022/04/14 10:58:27;;;;;;;18.70;10.75;;;26.90;75.40;;;;;;5146416;27;20019;-54
2022/04/14 11:00:54;;;;;;;17.42;11.13;;;26.90;75.50;;;;;;5145967;27;20319;-53
2022/04/14 11:03:40;;;;;;;18.25;11.73;;;26.90;75.60;;;;;;5146147;27;20031;-51
2022/04/14 11:06:07;;;;;;;17.27;11.52;;;26.90;75.60;;;;;;5145636;27;20038;-57
2022/04/14 11:08:45;;;;;;;21.83;11.50;;;26.90;75.50;;;;;;5145822;27;20057;-57
2022/04/14 11:11:16;;;;;;;22.05;11.90;;;26.90;75.60;;;;;;5146013;27;20030;-55
2022/04/14 11:13:52;;;;;;;16.38;11.98;;;26.90;75.70;;;;;;5139825;27;20024;-55
2022/04/14 11:16:40;;;;;;;16.17;11.35;;;26.90;75.80;;;;;;5127817;27;20023;-56
2022/04/14 11:19:22;;;;;;;22.67;12.05;;;26.90;75.90;;;;;;5124719;28;20016;-56
2022/04/14 11:22:08;;;;;;;20.38;12.57;;;26.90;75.70;;;;;;5124905;28;20072;-59
2022/04/14 11:24:40;;;;;;;19.10;11.73;;;26.90;76.10;;;;;;5128946;27;20026;-59
2022/04/14 11:27:28;;;;;;;20.00;12.38;;;26.90;76.20;;;;;;5145715;27;20311;-56
2022/04/14 11:29:58;;;;;;;20.30;12.02;;;26.90;76.40;;;;;;5145288;27;20031;-53
2022/04/14 11:32:42;;;;;;;17.58;12.02;;;26.90;76.40;;;;;;5145620;27;20047;-56
2022/04/14 11:35:16;;;;;;;21.00;12.52;;;26.90;76.40;;;;;;5136339;27;20015;-58
2022/04/14 11:37:45;;;;;;;21.60;12.18;;;26.90;76.50;;;;;;5125161;28;20199;-58
2022/04/14 11:40:20;;;;;;;17.92;11.48;;;26.90;76.60;;;;;;5124837;28;20066;-56
2022/04/14 11:42:54;;;;;;;16.88;11.43;;;27.00;76.70;;;;;;5125030;28;20016;-56
2022/04/14 11:45:26;;;;;;;21.73;12.68;;;27.00;76.90;;;;;;5124605;28;20024;-57
2022/04/14 11:48:00;;;;;;;21.45;12.68;;;27.00;76.90;;;;;;5125055;28;20047;-54
2022/04/14 11:50:29;;;;;;;20.70;13.23;;;27.00;76.80;;;;;;5124354;28;20024;-52
2022/04/14 11:53:00;;;;;;;23.95;16.35;;;27.00;77.10;;;;;;5124956;28;20192;-55
2022/04/14 11:55:41;;;;;;;30.13;17.38;;;27.00;77.10;;;;;;5124630;28;20100;-57
2022/04/14 11:58:12;;;;;;;22.98;14.35;;;27.00;77.00;;;;;;5125177;28;20251;-54
2022/04/14 12:00:50;;;;;;;22.08;14.07;;;27.00;76.90;;;;;;5129086;28;20091;-54
2022/04/14 12:03:30;;;;;;;23.70;13.48;;;27.00;76.90;;;;;;5125118;28;20352;-54
2022/04/14 12:06:02;;;;;;;18.35;13.27;;;27.00;76.60;;;;;;5124603;28;20076;-56
2022/04/14 12:08:29;;;;;;;21.58;12.82;;;27.00;77.00;;;;;;5124193;28;20316;-54
2022/04/14 12:10:55;;;;;;;18.20;12.93;;;27.00;76.90;;;;;;5124729;28;20166;-54
2022/04/14 12:13:24;;;;;;;25.60;13.05;;;27.00;77.30;;;;;;5124961;28;20024;-57
2022/04/14 12:16:20;;;;;;;21.13;12.80;;;27.00;77.20;;;;;;5124174;28;20030;-55
2022/04/14 12:18:51;;;;;;;19.00;12.80;;;27.10;77.10;;;;;;5107161;28;20221;-56
2022/04/14 12:21:27;;;;;;;18.00;13.13;;;27.00;77.10;;;;;;5124221;28;20020;-57
2022/04/14 12:23:55;;;;;;;19.30;13.00;;;27.00;77.10;;;;;;5124138;28;20140;-59
2022/04/14 12:26:26;;;;;;;20.33;13.93;;;27.10;77.10;;;;;;5124542;28;20031;-56
2022/04/14 12:28:52;;;;;;;19.70;14.20;;;27.00;77.20;;;;;;5124405;28;20242;-54
2022/04/14 12:31:20;;;;;;;18.73;14.05;;;27.10;77.10;;;;;;5127701;28;20026;-56
2022/04/14 12:34:01;;;;;;;19.27;14.55;;;27.00;77.20;;;;;;5127993;28;20026;-57
2022/04/14 12:36:35;;;;;;;22.65;14.75;;;27.10;77.20;;;;;;5128086;28;20011;-54